sensor_id;sensor_type;location;lat;lon;timestamp;temperature;humidity
31661;DHT22;18267;52.234;7.444;2022-07-26T00:02:00;20.90;99.90
31661;DHT22;18267;52.234;7.444;2022-07-26T00:04:26;20.80;99.90
31661;DHT22;18267;52.234;7.444;2022-07-26T00:06:52;20.80;99.90
31661;DHT22;18267;52.234;7.444;2022-07-26T00:09:18;20.70;99.90
31661;DHT22;18267;52.234;7.444;2022-07-26T00:11:43;20.70;99.90
31661;DHT22;18267;52.234;7.444;2022-07-26T00:14:09;20.70;99.90
31661;DHT22;18267;52.234;7.444;2022-07-26T00:16:35;20.70;99.90
31661;DHT22;18267;52.234;7.444;2022-07-26T00:19:01;20.60;99.90
31661;DHT22;18267;52.234;7.444;2022-07-26T00:21:27;20.60;99.90
31661;DHT22;18267;52.234;7.444;2022-07-26T00:23:53;20.60;99.90
31661;DHT22;18267;52.234;7.444;2022-07-26T00:26:18;20.70;99.90
31661;DHT22;18267;52.234;7.444;2022-07-26T00:28:44;20.70;99.90
31661;DHT22;18267;52.234;7.444;2022-07-26T00:31:09;20.70;99.90
31661;DHT22;18267;52.234;7.444;2022-07-26T00:33:37;20.70;99.90
31661;DHT22;18267;52.234;7.444;2022-07-26T00:36:03;20.60;99.90
31661;DHT22;18267;52.234;7.444;2022-07-26T00:38:29;20.50;99.90
31661;DHT22;18267;52.234;7.444;2022-07-26T00:40:54;20.50;99.90
31661;DHT22;18267;52.234;7.444;2022-07-26T00:43:20;20.40;99.90
31661;DHT22;18267;52.234;7.444;2022-07-26T00:45:46;20.40;99.90
31661;DHT22;18267;52.234;7.444;2022-07-26T00:48:11;20.40;99.90
31661;DHT22;18267;52.234;7.444;2022-07-26T00:50:37;20.30;99.90
31661;DHT22;18267;52.234;7.444;2022-07-26T00:53:02;20.30;99.90
31661;DHT22;18267;52.234;7.444;2022-07-26T00:55:28;20.30;99.90
31661;DHT22;18267;52.234;7.444;2022-07-26T00:57:54;20.40;99.90
31661;DHT22;18267;52.234;7.444;2022-07-26T01:00:22;20.40;99.90
31661;DHT22;18267;52.234;7.444;2022-07-26T01:02:50;20.40;99.90
31661;DHT22;18267;52.234;7.444;2022-07-26T01:05:16;20.40;99.90
31661;DHT22;18267;52.234;7.444;2022-07-26T01:07:42;20.40;99.90
31661;DHT22;18267;52.234;7.444;2022-07-26T01:10:10;20.30;99.90
31661;DHT22;18267;52.234;7.444;2022-07-26T01:12:40;20.30;99.90
31661;DHT22;18267;52.234;7.444;2022-07-26T01:15:07;20.40;99.90
31661;DHT22;18267;52.234;7.444;2022-07-26T01:17:33;20.40;99.90
31661;DHT22;18267;52.234;7.444;2022-07-26T01:19:59;20.30;99.90
31661;DHT22;18267;52.234;7.444;2022-07-26T01:22:25;20.40;99.90
31661;DHT22;18267;52.234;7.444;2022-07-26T01:24:50;20.50;99.90
31661;DHT22;18267;52.234;7.444;2022-07-26T01:27:16;20.50;99.90
31661;DHT22;18267;52.234;7.444;2022-07-26T01:29:42;20.50;99.90
31661;DHT22;18267;52.234;7.444;2022-07-26T01:32:07;20.50;99.90
31661;DHT22;18267;52.234;7.444;2022-07-26T01:34:33;20.50;99.90
31661;DHT22;18267;52.234;7.444;2022-07-26T01:36:59;20.60;99.90
31661;DHT22;18267;52.234;7.444;2022-07-26T01:39:24;20.50;99.90
31661;DHT22;18267;52.234;7.444;2022-07-26T01:41:52;20.50;99.90
31661;DHT22;18267;52.234;7.444;2022-07-26T01:44:18;20.40;99.90
31661;DHT22;18267;52.234;7.444;2022-07-26T01:46:44;20.40;99.90
31661;DHT22;18267;52.234;7.444;2022-07-26T01:49:09;20.40;99.90
31661;DHT22;18267;52.234;7.444;2022-07-26T01:51:35;20.50;99.90
31661;DHT22;18267;52.234;7.444;2022-07-26T01:54:01;20.40;99.90
31661;DHT22;18267;52.234;7.444;2022-07-26T01:56:27;20.30;99.90
31661;DHT22;18267;52.234;7.444;2022-07-26T01:58:52;20.40;99.90
31661;DHT22;18267;52.234;7.444;2022-07-26T02:01:18;20.40;99.90
31661;DHT22;18267;52.234;7.444;2022-07-26T02:03:44;20.50;99.90
31661;DHT22;18267;52.234;7.444;2022-07-26T02:06:09;20.50;99.90
31661;DHT22;18267;52.234;7.444;2022-07-26T02:08:35;20.40;99.90
31661;DHT22;18267;52.234;7.444;2022-07-26T02:11:01;20.40;99.90
31661;DHT22;18267;52.234;7.444;2022-07-26T02:13:35;20.40;99.90
31661;DHT22;18267;52.234;7.444;2022-07-26T02:16:03;20.30;99.90
31661;DHT22;18267;52.234;7.444;2022-07-26T02:18:29;20.40;99.90
31661;DHT22;18267;52.234;7.444;2022-07-26T02:20:56;20.40;99.90
31661;DHT22;18267;52.234;7.444;2022-07-26T02:23:23;20.30;99.90
31661;DHT22;18267;52.234;7.444;2022-07-26T02:25:49;20.30;99.90
31661;DHT22;18267;52.234;7.444;2022-07-26T02:28:15;20.30;99.90
31661;DHT22;18267;52.234;7.444;2022-07-26T02:30:42;20.30;99.90
31661;DHT22;18267;52.234;7.444;2022-07-26T02:33:08;20.30;99.90
31661;DHT22;18267;52.234;7.444;2022-07-26T02:35:34;20.30;99.90
31661;DHT22;18267;52.234;7.444;2022-07-26T02:38:04;20.20;99.90
31661;DHT22;18267;52.234;7.444;2022-07-26T02:40:31;20.20;99.90
31661;DHT22;18267;52.234;7.444;2022-07-26T02:42:57;20.20;99.90
31661;DHT22;18267;52.234;7.444;2022-07-26T02:45:23;20.10;99.90
31661;DHT22;18267;52.234;7.444;2022-07-26T02:47:51;20.10;99.90
31661;DHT22;18267;52.234;7.444;2022-07-26T02:50:18;20.10;99.90
31661;DHT22;18267;52.234;7.444;2022-07-26T02:52:44;20.00;99.90
31661;DHT22;18267;52.234;7.444;2022-07-26T02:55:13;20.00;99.90
31661;DHT22;18267;52.234;7.444;2022-07-26T02:57:39;20.00;99.90
31661;DHT22;18267;52.234;7.444;2022-07-26T03:00:06;20.00;99.90
31661;DHT22;18267;52.234;7.444;2022-07-26T03:02:32;20.10;99.90
31661;DHT22;18267;52.234;7.444;2022-07-26T03:04:57;20.10;99.90
31661;DHT22;18267;52.234;7.444;2022-07-26T03:07:23;20.20;99.90
31661;DHT22;18267;52.234;7.444;2022-07-26T03:09:48;20.20;99.90
31661;DHT22;18267;52.234;7.444;2022-07-26T03:12:14;20.30;99.90
31661;DHT22;18267;52.234;7.444;2022-07-26T03:14:39;20.20;99.90
31661;DHT22;18267;52.234;7.444;2022-07-26T03:17:05;20.20;99.90
31661;DHT22;18267;52.234;7.444;2022-07-26T03:19:30;20.20;99.90
31661;DHT22;18267;52.234;7.444;2022-07-26T03:21:56;20.00;99.90
31661;DHT22;18267;52.234;7.444;2022-07-26T03:24:21;20.10;99.90
31661;DHT22;18267;52.234;7.444;2022-07-26T03:26:47;20.10;99.90
31661;DHT22;18267;52.234;7.444;2022-07-26T03:29:13;20.10;99.90
31661;DHT22;18267;52.234;7.444;2022-07-26T03:31:38;20.10;99.90
31661;DHT22;18267;52.234;7.444;2022-07-26T03:34:04;20.00;99.90
31661;DHT22;18267;52.234;7.444;2022-07-26T03:36:29;20.00;99.90
31661;DHT22;18267;52.234;7.444;2022-07-26T03:38:55;20.00;99.90
31661;DHT22;18267;52.234;7.444;2022-07-26T03:41:20;20.00;99.90
31661;DHT22;18267;52.234;7.444;2022-07-26T03:43:46;20.00;99.90
31661;DHT22;18267;52.234;7.444;2022-07-26T03:46:11;20.00;99.90
31661;DHT22;18267;52.234;7.444;2022-07-26T03:48:37;20.00;99.90
31661;DHT22;18267;52.234;7.444;2022-07-26T03:51:03;20.00;99.90
31661;DHT22;18267;52.234;7.444;2022-07-26T03:53:28;19.90;99.90
31661;DHT22;18267;52.234;7.444;2022-07-26T03:55:54;20.00;99.90
31661;DHT22;18267;52.234;7.444;2022-07-26T03:58:42;19.90;99.90
31661;DHT22;18267;52.234;7.444;2022-07-26T04:01:08;19.90;99.90
31661;DHT22;18267;52.234;7.444;2022-07-26T04:03:34;19.90;99.90
31661;DHT22;18267;52.234;7.444;2022-07-26T04:05:59;19.80;99.90
31661;DHT22;18267;52.234;7.444;2022-07-26T04:08:25;19.70;99.90
31661;DHT22;18267;52.234;7.444;2022-07-26T04:10:51;19.80;99.90
31661;DHT22;18267;52.234;7.444;2022-07-26T04:13:17;19.80;99.90
31661;DHT22;18267;52.234;7.444;2022-07-26T04:15:43;19.80;99.90
31661;DHT22;18267;52.234;7.444;2022-07-26T04:18:09;19.80;99.90
31661;DHT22;18267;52.234;7.444;2022-07-26T04:20:34;19.80;99.90
31661;DHT22;18267;52.234;7.444;2022-07-26T04:23:00;19.80;99.90
31661;DHT22;18267;52.234;7.444;2022-07-26T04:25:25;19.70;99.90
31661;DHT22;18267;52.234;7.444;2022-07-26T04:27:51;19.80;99.90
31661;DHT22;18267;52.234;7.444;2022-07-26T04:30:16;19.80;99.90
31661;DHT22;18267;52.234;7.444;2022-07-26T04:32:45;19.70;99.90
31661;DHT22;18267;52.234;7.444;2022-07-26T04:35:11;19.70;99.90
31661;DHT22;18267;52.234;7.444;2022-07-26T04:37:43;19.80;99.90
31661;DHT22;18267;52.234;7.444;2022-07-26T04:40:13;19.80;99.90
31661;DHT22;18267;52.234;7.444;2022-07-26T04:42:39;19.80;99.90
31661;DHT22;18267;52.234;7.444;2022-07-26T04:45:06;19.80;99.90
31661;DHT22;18267;52.234;7.444;2022-07-26T04:47:35;19.90;99.90
31661;DHT22;18267;52.234;7.444;2022-07-26T04:50:06;20.00;99.90
31661;DHT22;18267;52.234;7.444;2022-07-26T04:52:35;20.00;99.90
31661;DHT22;18267;52.234;7.444;2022-07-26T05:01:36;20.10;99.90
31661;DHT22;18267;52.234;7.444;2022-07-26T05:14:37;20.10;99.90
31661;DHT22;18267;52.234;7.444;2022-07-26T05:34:57;20.50;99.90
31661;DHT22;18267;52.234;7.444;2022-07-26T05:38:42;20.60;99.90
31661;DHT22;18267;52.234;7.444;2022-07-26T05:42:19;20.60;99.90
31661;DHT22;18267;52.234;7.444;2022-07-26T05:45:45;20.70;99.90
31661;DHT22;18267;52.234;7.444;2022-07-26T05:49:17;20.80;99.90
31661;DHT22;18267;52.234;7.444;2022-07-26T05:52:47;20.90;99.90
31661;DHT22;18267;52.234;7.444;2022-07-26T05:56:28;21.00;99.90
31661;DHT22;18267;52.234;7.444;2022-07-26T05:59:35;21.00;99.90
31661;DHT22;18267;52.234;7.444;2022-07-26T06:03:04;21.00;99.90
31661;DHT22;18267;52.234;7.444;2022-07-26T06:06:31;21.10;99.90
31661;DHT22;18267;52.234;7.444;2022-07-26T06:13:27;21.00;99.90
31661;DHT22;18267;52.234;7.444;2022-07-26T06:20:28;20.80;99.90
31661;DHT22;18267;52.234;7.444;2022-07-26T06:24:06;20.90;99.90
31661;DHT22;18267;52.234;7.444;2022-07-26T06:34:39;21.00;99.90
31661;DHT22;18267;52.234;7.444;2022-07-26T06:41:46;20.90;99.90
31661;DHT22;18267;52.234;7.444;2022-07-26T06:48:31;20.70;99.90
31661;DHT22;18267;52.234;7.444;2022-07-26T06:51:37;20.50;99.90
31661;DHT22;18267;52.234;7.444;2022-07-26T06:55:32;20.30;99.90
31661;DHT22;18267;52.234;7.444;2022-07-26T06:58:48;20.20;99.90
31661;DHT22;18267;52.234;7.444;2022-07-26T07:01:54;20.10;99.90
31661;DHT22;18267;52.234;7.444;2022-07-26T07:04:27;19.90;99.90
31661;DHT22;18267;52.234;7.444;2022-07-26T07:08:13;19.90;99.90
31661;DHT22;18267;52.234;7.444;2022-07-26T07:10:59;20.30;99.90
31661;DHT22;18267;52.234;7.444;2022-07-26T07:13:26;20.30;99.90
31661;DHT22;18267;52.234;7.444;2022-07-26T07:15:55;20.20;99.90
31661;DHT22;18267;52.234;7.444;2022-07-26T07:18:42;20.00;99.90
31661;DHT22;18267;52.234;7.444;2022-07-26T07:21:40;19.80;99.90
31661;DHT22;18267;52.234;7.444;2022-07-26T07:24:13;19.70;99.90
31661;DHT22;18267;52.234;7.444;2022-07-26T07:26:40;19.70;99.90
31661;DHT22;18267;52.234;7.444;2022-07-26T07:29:15;19.70;99.90
31661;DHT22;18267;52.234;7.444;2022-07-26T07:31:50;19.60;99.90
31661;DHT22;18267;52.234;7.444;2022-07-26T07:34:25;19.50;99.90
31661;DHT22;18267;52.234;7.444;2022-07-26T07:37:42;19.60;99.90
31661;DHT22;18267;52.234;7.444;2022-07-26T07:44:09;19.80;99.90
31661;DHT22;18267;52.234;7.444;2022-07-26T07:47:02;19.90;99.90
31661;DHT22;18267;52.234;7.444;2022-07-26T07:53:57;19.80;99.90
31661;DHT22;18267;52.234;7.444;2022-07-26T08:03:33;19.70;99.90
31661;DHT22;18267;52.234;7.444;2022-07-26T08:07:12;19.80;99.90
31661;DHT22;18267;52.234;7.444;2022-07-26T08:30:37;20.40;99.90
31661;DHT22;18267;52.234;7.444;2022-07-26T08:39:54;20.60;99.90
31661;DHT22;18267;52.234;7.444;2022-07-26T08:42:48;20.40;99.90
31661;DHT22;18267;52.234;7.444;2022-07-26T08:46:00;20.20;99.90
31661;DHT22;18267;52.234;7.444;2022-07-26T08:48:48;19.80;99.90
31661;DHT22;18267;52.234;7.444;2022-07-26T08:55:00;19.30;99.90
31661;DHT22;18267;52.234;7.444;2022-07-26T09:01:10;19.10;99.90
31661;DHT22;18267;52.234;7.444;2022-07-26T09:03:55;19.20;99.90
31661;DHT22;18267;52.234;7.444;2022-07-26T09:11:37;19.30;99.90
31661;DHT22;18267;52.234;7.444;2022-07-26T09:14:45;19.30;99.90
31661;DHT22;18267;52.234;7.444;2022-07-26T09:17:54;19.50;99.90
31661;DHT22;18267;52.234;7.444;2022-07-26T09:21:29;19.50;99.90
31661;DHT22;18267;52.234;7.444;2022-07-26T09:25:20;19.50;99.90
31661;DHT22;18267;52.234;7.444;2022-07-26T09:28:29;19.70;99.90
31661;DHT22;18267;52.234;7.444;2022-07-26T09:31:04;19.50;99.90
31661;DHT22;18267;52.234;7.444;2022-07-26T09:34:03;19.40;99.90
31661;DHT22;18267;52.234;7.444;2022-07-26T09:36:29;19.30;99.90
31661;DHT22;18267;52.234;7.444;2022-07-26T09:39:00;19.30;99.90
31661;DHT22;18267;52.234;7.444;2022-07-26T09:41:31;19.30;99.90
31661;DHT22;18267;52.234;7.444;2022-07-26T09:44:04;19.40;99.90
31661;DHT22;18267;52.234;7.444;2022-07-26T09:46:31;19.40;99.90
31661;DHT22;18267;52.234;7.444;2022-07-26T09:48:58;19.40;99.90
31661;DHT22;18267;52.234;7.444;2022-07-26T09:51:42;19.70;99.90
31661;DHT22;18267;52.234;7.444;2022-07-26T09:54:09;19.70;99.90
31661;DHT22;18267;52.234;7.444;2022-07-26T09:56:44;19.90;99.90
31661;DHT22;18267;52.234;7.444;2022-07-26T09:59:13;19.90;99.90
31661;DHT22;18267;52.234;7.444;2022-07-26T10:01:39;20.00;99.90
31661;DHT22;18267;52.234;7.444;2022-07-26T10:04:04;20.00;99.90
31661;DHT22;18267;52.234;7.444;2022-07-26T10:06:31;19.90;99.90
31661;DHT22;18267;52.234;7.444;2022-07-26T10:08:57;20.20;99.90
31661;DHT22;18267;52.234;7.444;2022-07-26T10:11:24;20.30;99.90
31661;DHT22;18267;52.234;7.444;2022-07-26T10:13:50;20.30;99.90
31661;DHT22;18267;52.234;7.444;2022-07-26T10:16:31;20.40;99.90
31661;DHT22;18267;52.234;7.444;2022-07-26T10:18:57;20.40;99.90
31661;DHT22;18267;52.234;7.444;2022-07-26T10:21:25;20.20;99.90
31661;DHT22;18267;52.234;7.444;2022-07-26T10:23:59;20.20;99.90
31661;DHT22;18267;52.234;7.444;2022-07-26T10:31:42;20.50;99.90
31661;DHT22;18267;52.234;7.444;2022-07-26T10:34:08;20.50;99.90
31661;DHT22;18267;52.234;7.444;2022-07-26T10:36:36;20.40;99.90
31661;DHT22;18267;52.234;7.444;2022-07-26T10:41:45;20.20;99.90
31661;DHT22;18267;52.234;7.444;2022-07-26T10:44:20;20.00;99.90
31661;DHT22;18267;52.234;7.444;2022-07-26T10:47:09;19.90;99.90
31661;DHT22;18267;52.234;7.444;2022-07-26T10:52:17;20.10;99.90
31661;DHT22;18267;52.234;7.444;2022-07-26T10:57:24;20.20;99.90
31661;DHT22;18267;52.234;7.444;2022-07-26T10:59:49;20.20;99.90
31661;DHT22;18267;52.234;7.444;2022-07-26T11:02:23;20.30;99.90
31661;DHT22;18267;52.234;7.444;2022-07-26T11:04:49;20.30;99.90
31661;DHT22;18267;52.234;7.444;2022-07-26T11:07:15;20.10;99.90
31661;DHT22;18267;52.234;7.444;2022-07-26T11:09:40;20.00;99.90
31661;DHT22;18267;52.234;7.444;2022-07-26T11:12:19;19.90;99.90
31661;DHT22;18267;52.234;7.444;2022-07-26T11:14:46;19.80;99.90
31661;DHT22;18267;52.234;7.444;2022-07-26T11:17:28;19.70;99.90
31661;DHT22;18267;52.234;7.444;2022-07-26T11:19:54;19.60;99.90
31661;DHT22;18267;52.234;7.444;2022-07-26T11:22:21;19.60;99.90
31661;DHT22;18267;52.234;7.444;2022-07-26T11:24:47;19.70;99.90
31661;DHT22;18267;52.234;7.444;2022-07-26T11:27:13;19.70;99.90
31661;DHT22;18267;52.234;7.444;2022-07-26T11:29:39;19.70;99.90
31661;DHT22;18267;52.234;7.444;2022-07-26T11:32:06;19.80;99.90
31661;DHT22;18267;52.234;7.444;2022-07-26T11:34:33;20.10;99.90
31661;DHT22;18267;52.234;7.444;2022-07-26T11:37:01;20.20;99.90
31661;DHT22;18267;52.234;7.444;2022-07-26T11:39:33;20.30;99.90
31661;DHT22;18267;52.234;7.444;2022-07-26T11:44:26;20.70;99.90
31661;DHT22;18267;52.234;7.444;2022-07-26T11:46:52;20.80;99.90
31661;DHT22;18267;52.234;7.444;2022-07-26T11:49:19;20.80;99.90
31661;DHT22;18267;52.234;7.444;2022-07-26T11:54:18;20.80;99.90
31661;DHT22;18267;52.234;7.444;2022-07-26T11:56:54;20.80;99.90
31661;DHT22;18267;52.234;7.444;2022-07-26T11:59:20;20.60;99.90
31661;DHT22;18267;52.234;7.444;2022-07-26T12:01:46;20.20;99.90
31661;DHT22;18267;52.234;7.444;2022-07-26T12:04:29;19.90;99.90
31661;DHT22;18267;52.234;7.444;2022-07-26T12:06:56;19.90;99.90
31661;DHT22;18267;52.234;7.444;2022-07-26T12:12:04;19.90;99.90
31661;DHT22;18267;52.234;7.444;2022-07-26T12:14:35;19.90;99.90
31661;DHT22;18267;52.234;7.444;2022-07-26T12:17:16;19.90;99.90
31661;DHT22;18267;52.234;7.444;2022-07-26T12:19:42;19.80;99.90
31661;DHT22;18267;52.234;7.444;2022-07-26T12:22:10;19.70;99.90
31661;DHT22;18267;52.234;7.444;2022-07-26T12:27:15;19.60;99.90
31661;DHT22;18267;52.234;7.444;2022-07-26T12:29:44;19.60;99.90
31661;DHT22;18267;52.234;7.444;2022-07-26T12:32:21;19.60;99.90
31661;DHT22;18267;52.234;7.444;2022-07-26T12:35:11;19.60;99.90
31661;DHT22;18267;52.234;7.444;2022-07-26T12:37:57;19.50;99.90
31661;DHT22;18267;52.234;7.444;2022-07-26T12:40:30;19.50;99.90
31661;DHT22;18267;52.234;7.444;2022-07-26T12:43:03;19.50;99.90
31661;DHT22;18267;52.234;7.444;2022-07-26T12:45:32;19.50;99.90
31661;DHT22;18267;52.234;7.444;2022-07-26T12:47:59;19.60;99.90
31661;DHT22;18267;52.234;7.444;2022-07-26T12:50:27;19.70;99.90
31661;DHT22;18267;52.234;7.444;2022-07-26T12:53:06;19.90;99.90
31661;DHT22;18267;52.234;7.444;2022-07-26T12:55:33;20.00;99.90
31661;DHT22;18267;52.234;7.444;2022-07-26T12:57:58;20.10;99.90
31661;DHT22;18267;52.234;7.444;2022-07-26T13:00:25;20.20;99.90
31661;DHT22;18267;52.234;7.444;2022-07-26T13:02:50;20.30;99.90
31661;DHT22;18267;52.234;7.444;2022-07-26T13:05:19;20.50;99.90
31661;DHT22;18267;52.234;7.444;2022-07-26T13:07:45;20.60;99.90
31661;DHT22;18267;52.234;7.444;2022-07-26T13:10:10;20.80;99.90
31661;DHT22;18267;52.234;7.444;2022-07-26T13:12:37;21.00;99.90
31661;DHT22;18267;52.234;7.444;2022-07-26T13:15:03;20.80;99.90
31661;DHT22;18267;52.234;7.444;2022-07-26T13:17:29;20.50;99.90
31661;DHT22;18267;52.234;7.444;2022-07-26T13:19:55;20.50;99.90
31661;DHT22;18267;52.234;7.444;2022-07-26T13:22:20;20.50;99.90
31661;DHT22;18267;52.234;7.444;2022-07-26T13:24:46;20.50;99.90
31661;DHT22;18267;52.234;7.444;2022-07-26T13:27:12;20.40;99.90
31661;DHT22;18267;52.234;7.444;2022-07-26T13:29:37;20.40;99.90
31661;DHT22;18267;52.234;7.444;2022-07-26T13:32:03;20.50;99.90
31661;DHT22;18267;52.234;7.444;2022-07-26T13:34:30;20.50;99.90
31661;DHT22;18267;52.234;7.444;2022-07-26T13:36:57;20.50;99.90
31661;DHT22;18267;52.234;7.444;2022-07-26T13:39:23;20.50;99.90
31661;DHT22;18267;52.234;7.444;2022-07-26T13:41:48;20.60;99.90
31661;DHT22;18267;52.234;7.444;2022-07-26T13:44:14;20.60;99.90
31661;DHT22;18267;52.234;7.444;2022-07-26T13:46:40;20.50;99.90
31661;DHT22;18267;52.234;7.444;2022-07-26T13:49:06;20.40;99.90
31661;DHT22;18267;52.234;7.444;2022-07-26T13:51:34;20.40;99.90
31661;DHT22;18267;52.234;7.444;2022-07-26T13:54:20;20.40;99.90
31661;DHT22;18267;52.234;7.444;2022-07-26T13:56:46;20.30;99.90
31661;DHT22;18267;52.234;7.444;2022-07-26T13:59:12;20.30;99.90
31661;DHT22;18267;52.234;7.444;2022-07-26T14:01:39;20.50;99.90
31661;DHT22;18267;52.234;7.444;2022-07-26T14:04:06;20.70;99.90
31661;DHT22;18267;52.234;7.444;2022-07-26T14:06:32;20.60;99.90
31661;DHT22;18267;52.234;7.444;2022-07-26T14:08:59;20.60;99.90
31661;DHT22;18267;52.234;7.444;2022-07-26T14:11:25;20.60;99.90
31661;DHT22;18267;52.234;7.444;2022-07-26T14:13:51;20.60;99.90
31661;DHT22;18267;52.234;7.444;2022-07-26T14:16:17;20.60;99.90
31661;DHT22;18267;52.234;7.444;2022-07-26T14:18:43;20.60;99.90
31661;DHT22;18267;52.234;7.444;2022-07-26T14:21:08;20.50;99.90
31661;DHT22;18267;52.234;7.444;2022-07-26T14:23:34;20.60;99.90
31661;DHT22;18267;52.234;7.444;2022-07-26T14:25:59;20.60;99.90
31661;DHT22;18267;52.234;7.444;2022-07-26T14:28:25;20.50;99.90
31661;DHT22;18267;52.234;7.444;2022-07-26T14:30:50;20.50;99.90
31661;DHT22;18267;52.234;7.444;2022-07-26T14:33:16;20.50;99.90
31661;DHT22;18267;52.234;7.444;2022-07-26T14:35:42;20.60;99.90
31661;DHT22;18267;52.234;7.444;2022-07-26T14:38:08;20.60;99.90
31661;DHT22;18267;52.234;7.444;2022-07-26T14:40:34;20.70;99.90
31661;DHT22;18267;52.234;7.444;2022-07-26T14:43:00;20.70;99.90
31661;DHT22;18267;52.234;7.444;2022-07-26T14:45:26;20.70;99.90
31661;DHT22;18267;52.234;7.444;2022-07-26T14:47:52;20.70;99.90
31661;DHT22;18267;52.234;7.444;2022-07-26T14:50:18;20.70;99.90
31661;DHT22;18267;52.234;7.444;2022-07-26T14:52:46;20.70;99.90
31661;DHT22;18267;52.234;7.444;2022-07-26T14:55:12;20.70;99.90
31661;DHT22;18267;52.234;7.444;2022-07-26T14:57:39;20.60;99.90
31661;DHT22;18267;52.234;7.444;2022-07-26T15:00:09;20.70;99.90
31661;DHT22;18267;52.234;7.444;2022-07-26T15:02:37;20.60;99.90
31661;DHT22;18267;52.234;7.444;2022-07-26T15:05:03;20.70;99.90
31661;DHT22;18267;52.234;7.444;2022-07-26T15:07:29;20.60;99.90
31661;DHT22;18267;52.234;7.444;2022-07-26T15:09:54;20.60;99.90
31661;DHT22;18267;52.234;7.444;2022-07-26T15:12:20;20.60;99.90
31661;DHT22;18267;52.234;7.444;2022-07-26T15:14:45;20.80;99.90
31661;DHT22;18267;52.234;7.444;2022-07-26T15:17:12;20.90;99.90
31661;DHT22;18267;52.234;7.444;2022-07-26T15:19:38;20.90;99.90
31661;DHT22;18267;52.234;7.444;2022-07-26T15:22:04;20.90;99.90
31661;DHT22;18267;52.234;7.444;2022-07-26T15:24:29;20.90;99.90
31661;DHT22;18267;52.234;7.444;2022-07-26T15:26:55;20.80;99.90
31661;DHT22;18267;52.234;7.444;2022-07-26T15:29:21;20.50;99.90
31661;DHT22;18267;52.234;7.444;2022-07-26T15:31:47;20.40;99.90
31661;DHT22;18267;52.234;7.444;2022-07-26T15:34:13;20.40;99.90
31661;DHT22;18267;52.234;7.444;2022-07-26T15:36:39;20.30;99.90
31661;DHT22;18267;52.234;7.444;2022-07-26T15:39:05;20.30;99.90
31661;DHT22;18267;52.234;7.444;2022-07-26T15:41:32;20.30;99.90
31661;DHT22;18267;52.234;7.444;2022-07-26T15:43:58;20.40;99.90
31661;DHT22;18267;52.234;7.444;2022-07-26T15:46:24;20.50;99.90
31661;DHT22;18267;52.234;7.444;2022-07-26T15:48:49;20.40;99.90
31661;DHT22;18267;52.234;7.444;2022-07-26T15:51:15;20.40;99.90
31661;DHT22;18267;52.234;7.444;2022-07-26T15:53:41;20.50;99.90
31661;DHT22;18267;52.234;7.444;2022-07-26T15:56:09;20.40;99.90
31661;DHT22;18267;52.234;7.444;2022-07-26T15:58:34;20.30;99.90
31661;DHT22;18267;52.234;7.444;2022-07-26T16:01:00;20.20;99.90
31661;DHT22;18267;52.234;7.444;2022-07-26T16:03:26;20.00;99.90
31661;DHT22;18267;52.234;7.444;2022-07-26T16:05:53;20.00;99.90
31661;DHT22;18267;52.234;7.444;2022-07-26T16:08:18;20.10;99.90
31661;DHT22;18267;52.234;7.444;2022-07-26T16:10:44;20.00;99.90
31661;DHT22;18267;52.234;7.444;2022-07-26T16:13:10;20.10;99.90
31661;DHT22;18267;52.234;7.444;2022-07-26T16:15:37;20.10;99.90
31661;DHT22;18267;52.234;7.444;2022-07-26T16:18:03;20.00;99.90
31661;DHT22;18267;52.234;7.444;2022-07-26T16:20:29;20.00;99.90
31661;DHT22;18267;52.234;7.444;2022-07-26T16:22:55;20.10;99.90
31661;DHT22;18267;52.234;7.444;2022-07-26T16:25:20;20.20;99.90
31661;DHT22;18267;52.234;7.444;2022-07-26T16:27:46;20.20;99.90
31661;DHT22;18267;52.234;7.444;2022-07-26T16:30:13;20.20;99.90
31661;DHT22;18267;52.234;7.444;2022-07-26T16:32:40;20.20;99.90
31661;DHT22;18267;52.234;7.444;2022-07-26T16:35:06;19.90;99.90
31661;DHT22;18267;52.234;7.444;2022-07-26T16:37:32;19.80;99.90
31661;DHT22;18267;52.234;7.444;2022-07-26T16:39:57;19.80;99.90
31661;DHT22;18267;52.234;7.444;2022-07-26T16:42:23;19.80;99.90
31661;DHT22;18267;52.234;7.444;2022-07-26T16:44:49;19.90;99.90
31661;DHT22;18267;52.234;7.444;2022-07-26T16:47:15;19.90;99.90
31661;DHT22;18267;52.234;7.444;2022-07-26T16:49:40;19.90;99.90
31661;DHT22;18267;52.234;7.444;2022-07-26T16:52:06;19.90;99.90
31661;DHT22;18267;52.234;7.444;2022-07-26T16:54:32;19.90;99.90
31661;DHT22;18267;52.234;7.444;2022-07-26T16:56:58;19.80;99.90
31661;DHT22;18267;52.234;7.444;2022-07-26T16:59:24;19.80;99.90
31661;DHT22;18267;52.234;7.444;2022-07-26T17:01:50;19.80;99.90
31661;DHT22;18267;52.234;7.444;2022-07-26T17:04:16;19.80;99.90
31661;DHT22;18267;52.234;7.444;2022-07-26T17:06:43;19.90;99.90
31661;DHT22;18267;52.234;7.444;2022-07-26T17:09:08;19.90;99.90
31661;DHT22;18267;52.234;7.444;2022-07-26T17:11:34;19.90;99.90
31661;DHT22;18267;52.234;7.444;2022-07-26T17:14:00;20.00;99.90
31661;DHT22;18267;52.234;7.444;2022-07-26T17:16:26;20.00;99.90
31661;DHT22;18267;52.234;7.444;2022-07-26T17:18:52;20.00;99.90
31661;DHT22;18267;52.234;7.444;2022-07-26T17:21:18;20.00;99.90
31661;DHT22;18267;52.234;7.444;2022-07-26T17:23:44;19.90;99.90
31661;DHT22;18267;52.234;7.444;2022-07-26T17:26:10;19.80;99.90
31661;DHT22;18267;52.234;7.444;2022-07-26T17:28:35;19.80;99.90
31661;DHT22;18267;52.234;7.444;2022-07-26T17:31:01;19.90;99.90
31661;DHT22;18267;52.234;7.444;2022-07-26T17:33:27;20.00;98.90
31661;DHT22;18267;52.234;7.444;2022-07-26T17:35:52;19.90;99.00
31661;DHT22;18267;52.234;7.444;2022-07-26T17:38:18;19.90;99.00
31661;DHT22;18267;52.234;7.444;2022-07-26T17:40:43;19.80;98.20
31661;DHT22;18267;52.234;7.444;2022-07-26T17:43:09;19.70;98.20
31661;DHT22;18267;52.234;7.444;2022-07-26T17:45:35;19.70;98.70
31661;DHT22;18267;52.234;7.444;2022-07-26T17:48:00;19.60;98.90
31661;DHT22;18267;52.234;7.444;2022-07-26T17:50:26;19.60;98.70
31661;DHT22;18267;52.234;7.444;2022-07-26T17:52:51;19.50;98.90
31661;DHT22;18267;52.234;7.444;2022-07-26T17:55:18;19.40;99.00
31661;DHT22;18267;52.234;7.444;2022-07-26T17:57:44;19.50;99.00
31661;DHT22;18267;52.234;7.444;2022-07-26T18:00:10;19.50;99.10
31661;DHT22;18267;52.234;7.444;2022-07-26T18:02:36;19.50;99.10
31661;DHT22;18267;52.234;7.444;2022-07-26T18:05:02;19.40;99.40
31661;DHT22;18267;52.234;7.444;2022-07-26T18:07:28;19.40;99.50
31661;DHT22;18267;52.234;7.444;2022-07-26T18:09:53;19.50;99.60
31661;DHT22;18267;52.234;7.444;2022-07-26T18:12:19;19.40;99.80
31661;DHT22;18267;52.234;7.444;2022-07-26T18:14:45;19.40;99.90
31661;DHT22;18267;52.234;7.444;2022-07-26T18:17:10;19.30;99.30